Time;durP1;ratioP1;P1;durP2;ratioP2;P2;SDS_P1;SDS_P2;PMS_P1;PMS_P2;Temp;Humidity;BMP_temperature;BMP_pressure;BME280_temperature;BME280_humidity;BME280_pressure;Samples;Min_cycle;Max_cycle;Signal;HPM_P1;HPM_P2
2023/10/24 00:01:16;;;;;;;11.60;3.10;;;;;;;21.61;50.03;99037.25;4995073;28;20530;-92
2023/10/24 00:03:43;;;;;;;13.93;3.40;;;;;;;21.62;49.78;99033.59;4995004;28;20180;-93
2023/10/24 00:06:08;;;;;;;11.53;3.00;;;;;;;21.63;50.20;99029.94;4978847;28;20531;-92
2023/10/24 00:08:35;;;;;;;10.23;2.90;;;;;;;21.70;50.35;99025.66;4981907;28;20187;-93
2023/10/24 00:11:02;;;;;;;19.03;3.97;;;;;;;21.73;50.06;99020.00;4998628;28;20221;-92
2023/10/24 00:13:29;;;;;;;15.10;2.90;;;;;;;21.75;50.27;99020.72;4998160;28;20229;-92
2023/10/24 00:15:57;;;;;;;14.50;3.43;;;;;;;21.73;50.36;99022.69;5015058;28;20206;-92
2023/10/24 00:18:24;;;;;;;14.13;3.13;;;;;;;21.74;50.31;99021.69;4997989;28;20191;-92
2023/10/24 00:20:49;;;;;;;14.57;2.73;;;;;;;21.74;49.87;99029.72;4997668;28;20219;-93
2023/10/24 00:23:16;;;;;;;13.10;2.30;;;;;;;21.65;50.18;99025.28;5015247;28;20664;-93
2023/10/24 00:25:43;;;;;;;11.90;3.03;;;;;;;21.60;50.17;99016.91;4982744;28;20215;-92
2023/10/24 00:28:08;;;;;;;20.10;3.73;;;;;;;21.51;50.26;99020.50;4978372;28;20172;-93
2023/10/24 00:30:34;;;;;;;12.33;2.90;;;;;;;21.43;50.40;99022.06;4982232;28;20183;-93
2023/10/24 00:33:01;;;;;;;12.50;3.23;;;;;;;21.36;50.15;99018.34;4997803;28;20546;-93
2023/10/24 00:35:27;;;;;;;14.03;2.80;;;;;;;21.29;50.24;99019.94;4997815;28;20573;-92
2023/10/24 00:37:53;;;;;;;11.50;3.73;;;;;;;21.22;50.48;99021.53;4997702;28;20179;-92
2023/10/24 00:40:19;;;;;;;14.70;3.33;;;;;;;21.17;50.77;99014.97;4997529;28;20182;-93
2023/10/24 00:42:46;;;;;;;16.60;3.40;;;;;;;21.08;51.22;99003.38;5014762;28;20171;-91
2023/10/24 00:45:12;;;;;;;7.60;2.90;;;;;;;21.03;51.26;99005.63;4997466;28;20268;-93
2023/10/24 00:47:39;;;;;;;10.13;4.00;;;;;;;20.94;51.46;99006.50;5014615;28;20218;-92
2023/10/24 00:50:06;;;;;;;6.17;2.90;;;;;;;20.88;51.79;99009.78;4997554;28;20213;-92
2023/10/24 00:52:37;;;;;;;6.20;2.90;;;;;;;20.82;52.07;99005.06;5014510;28;20593;-93
2023/10/24 00:55:05;;;;;;;9.27;4.17;;;;;;;20.78;52.09;99001.00;5014738;28;20182;-92
2023/10/24 00:57:31;;;;;;;15.60;3.10;;;;;;;20.73;52.20;98998.78;4996987;28;20175;-91
2023/10/24 00:59:57;;;;;;;15.33;2.67;;;;;;;20.69;52.63;99000.06;5014843;28;20244;-92
2023/10/24 01:02:23;;;;;;;17.33;2.97;;;;;;;20.65;52.51;99000.53;4997098;28;20568;-91
2023/10/24 01:04:53;;;;;;;9.40;3.13;;;;;;;20.58;52.83;99005.56;4996949;28;20190;-91
2023/10/24 01:07:19;;;;;;;13.57;3.23;;;;;;;20.51;53.06;99003.66;5013822;28;20175;-92
2023/10/24 01:09:44;;;;;;;9.70;3.03;;;;;;;20.42;53.32;99008.03;4996982;28;20241;-92
2023/10/24 01:12:11;;;;;;;15.23;2.63;;;;;;;20.39;53.66;99012.81;5014028;28;20198;-92
2023/10/24 01:14:40;;;;;;;22.13;3.10;;;;;;;20.34;53.34;99005.25;5014725;28;20226;-91
2023/10/24 01:17:12;;;;;;;13.83;3.53;;;;;;;20.33;53.59;99008.06;5014437;28;20259;-93
2023/10/24 01:19:38;;;;;;;11.97;3.83;;;;;;;20.34;53.64;99007.91;4997238;28;20206;-91
2023/10/24 01:22:05;;;;;;;13.33;3.43;;;;;;;20.31;54.15;99010.84;4996846;28;20659;-93
2023/10/24 01:24:32;;;;;;;19.40;2.93;;;;;;;20.32;53.99;99007.22;4996838;28;20190;-92
2023/10/24 01:26:58;;;;;;;12.50;3.03;;;;;;;20.35;54.02;99014.06;4996614;28;20278;-92
2023/10/24 01:29:24;;;;;;;10.53;3.37;;;;;;;20.36;54.28;99010.44;5013950;28;20206;-92
2023/10/24 01:31:49;;;;;;;10.03;2.90;;;;;;;20.36;54.34;99005.13;4996652;28;20187;-92
2023/10/24 01:34:15;;;;;;;14.87;3.53;;;;;;;20.28;54.89;99011.16;4996715;28;20189;-92
2023/10/24 01:36:41;;;;;;;9.13;3.13;;;;;;;20.22;55.21;99007.22;4996735;28;20175;-92
2023/10/24 01:39:08;;;;;;;9.07;2.43;;;;;;;20.28;55.13;99007.66;4981800;28;20564;-92
2023/10/24 01:41:35;;;;;;;10.73;3.43;;;;;;;20.28;54.94;99013.84;4994193;28;20175;-92
2023/10/24 01:44:01;;;;;;;12.93;3.53;;;;;;;20.25;54.82;99007.94;4994009;28;20171;-91
2023/10/24 01:46:27;;;;;;;12.67;3.70;;;;;;;20.22;54.62;99003.72;4992708;28;20290;-92
2023/10/24 01:48:52;;;;;;;7.97;2.83;;;;;;;20.21;54.73;99002.03;4977137;28;20215;-91
2023/10/24 01:51:19;;;;;;;10.87;3.37;;;;;;;20.16;54.65;99007.78;5006181;28;20171;-92
2023/10/24 01:53:46;;;;;;;16.20;3.53;;;;;;;20.16;54.80;99005.13;4996291;28;20185;-92
2023/10/24 01:56:13;;;;;;;12.07;3.60;;;;;;;20.19;54.81;99002.19;5013461;28;20182;-92
2023/10/24 01:58:39;;;;;;;9.13;2.83;;;;;;;20.17;54.82;99012.16;4991301;28;20689;-91
2023/10/24 02:01:06;;;;;;;17.57;3.17;;;;;;;20.17;54.99;99012.16;4976996;28;20183;-92
2023/10/24 02:03:33;;;;;;;7.67;3.50;;;;;;;20.09;55.09;99012.03;4980907;28;20171;-91
2023/10/24 02:06:00;;;;;;;16.67;3.53;;;;;;;20.08;55.17;99020.97;5013483;28;20183;-93
2023/10/24 02:08:26;;;;;;;13.80;3.00;;;;;;;20.03;54.80;99020.56;5013831;28;20217;-91
2023/10/24 02:10:53;;;;;;;10.57;3.47;;;;;;;20.00;54.75;99015.53;4988877;28;20175;-92
2023/10/24 02:13:19;;;;;;;10.13;3.43;;;;;;;19.95;54.75;99017.78;4976891;28;20180;-91
2023/10/24 02:15:45;;;;;;;10.50;3.47;;;;;;;19.94;54.66;99015.28;4990083;28;20245;-91
2023/10/24 02:18:10;;;;;;;10.90;2.93;;;;;;;19.96;54.08;99013.31;5015983;28;20179;-92
2023/10/24 02:20:39;;;;;;;17.83;3.00;;;;;;;19.96;54.04;99014.16;5017767;28;20175;-92
2023/10/24 02:23:06;;;;;;;16.30;3.20;;;;;;;19.93;54.11;99017.09;4999961;28;20197;-92
2023/10/24 02:25:39;;;;;;;11.70;3.33;;;;;;;19.88;53.89;99021.16;5016350;28;20258;-94
2023/10/24 02:28:05;;;;;;;10.97;3.03;;;;;;;19.82;54.09;99022.56;5000926;28;20167;-92
2023/10/24 02:30:30;;;;;;;14.43;3.50;;;;;;;19.73;53.95;99022.56;4999956;28;20621;-91
2023/10/24 02:33:00;;;;;;;8.50;2.87;;;;;;;19.74;54.15;99022.41;4999688;28;20179;-91
2023/10/24 02:35:28;;;;;;;8.23;3.80;;;;;;;19.73;53.92;99023.41;4999779;28;20179;-91
2023/10/24 02:37:54;;;;;;;12.83;3.17;;;;;;;19.74;53.94;99030.41;5006985;28;20179;-92
2023/10/24 02:40:20;;;;;;;7.93;3.23;;;;;;;19.72;53.86;99032.34;4980168;28;20208;-92
2023/10/24 02:42:46;;;;;;;11.83;3.53;;;;;;;19.75;53.63;99040.06;4996519;28;20206;-91
2023/10/24 02:45:12;;;;;;;18.80;3.53;;;;;;;19.65;53.88;99025.94;4997817;28;20214;-92
2023/10/24 02:47:37;;;;;;;9.13;2.80;;;;;;;19.60;53.67;99036.16;4992556;28;20187;-91
2023/10/24 02:50:03;;;;;;;8.43;2.93;;;;;;;19.54;54.25;99034.03;4999749;28;20229;-92
2023/10/24 02:52:30;;;;;;;15.50;3.57;;;;;;;19.47;54.25;99036.41;4988300;28;20257;-92
2023/10/24 02:54:57;;;;;;;5.97;3.00;;;;;;;19.42;54.42;99040.44;5032277;28;20206;-92
2023/10/24 02:57:22;;;;;;;15.00;2.83;;;;;;;19.38;54.38;99037.25;5019131;28;20177;-91
2023/10/24 02:59:48;;;;;;;10.67;2.77;;;;;;;19.33;54.88;99036.78;5005778;28;20197;-92
2023/10/24 03:02:15;;;;;;;13.80;3.43;;;;;;;19.27;55.40;99037.34;4999492;28;20533;-92
2023/10/24 03:04:41;;;;;;;12.37;3.43;;;;;;;19.25;55.40;99043.75;4986186;28;20215;-92
2023/10/24 03:07:06;;;;;;;19.27;3.27;;;;;;;19.27;55.27;99041.81;4979719;28;20176;-91
2023/10/24 03:09:33;;;;;;;15.60;4.33;;;;;;;19.29;54.95;99047.81;4993435;28;20180;-92
2023/10/24 03:11:59;;;;;;;7.27;2.97;;;;;;;19.25;55.56;99038.44;4979728;28;20178;-91
2023/10/24 03:14:25;;;;;;;6.67;2.80;;;;;;;19.15;55.64;99049.06;4979980;28;20270;-92
2023/10/24 03:16:51;;;;;;;15.73;3.43;;;;;;;19.06;56.02;99039.25;4979709;28;20172;-92
2023/10/24 03:19:16;;;;;;;9.70;3.27;;;;;;;19.02;56.38;99043.97;4996584;28;20207;-91
2023/10/24 03:21:42;;;;;;;11.13;2.97;;;;;;;19.00;56.55;99039.78;4979624;28;20175;-91
2023/10/24 03:24:09;;;;;;;10.67;3.60;;;;;;;18.96;56.60;99044.53;4996552;28;20583;-92
2023/10/24 03:26:34;;;;;;;8.67;3.53;;;;;;;18.94;56.91;99054.47;4993021;28;20187;-92
2023/10/24 03:29:00;;;;;;;10.33;3.23;;;;;;;18.91;56.95;99046.78;4995155;28;20179;-92
2023/10/24 03:31:26;;;;;;;7.67;3.20;;;;;;;18.93;56.83;99042.16;4979348;28;20187;-92
2023/10/24 03:33:53;;;;;;;20.77;3.50;;;;;;;18.93;56.96;99043.97;5010342;28;20646;-92
2023/10/24 03:36:18;;;;;;;15.80;3.63;;;;;;;18.89;57.03;99046.03;4998829;28;20203;-92
2023/10/24 03:38:45;;;;;;;16.73;3.17;;;;;;;18.89;56.88;99043.38;4990013;28;20212;-92
2023/10/24 03:41:10;;;;;;;16.90;3.83;;;;;;;18.88;56.93;99047.03;4995387;28;20200;-92
2023/10/24 03:43:37;;;;;;;8.23;3.27;;;;;;;18.91;56.87;99045.91;4995868;28;20567;-92
2023/10/24 03:46:05;;;;;;;12.70;3.57;;;;;;;18.96;56.48;99033.91;4995550;28;20205;-92
2023/10/24 03:48:32;;;;;;;11.60;3.00;;;;;;;18.92;56.66;99032.50;4998479;28;20189;-91
2023/10/24 03:51:01;;;;;;;8.53;2.90;;;;;;;18.87;56.66;99034.72;5015940;28;20680;-91
2023/10/24 03:53:28;;;;;;;8.07;3.03;;;;;;;18.84;57.01;99034.97;4998378;28;20183;-90
2023/10/24 03:56:00;;;;;;;11.70;3.80;;;;;;;18.86;56.76;99035.72;5015603;28;20181;-91
2023/10/24 03:58:26;;;;;;;11.70;3.40;;;;;;;18.87;57.00;99040.03;5015494;28;20195;-91
2023/10/24 04:00:53;;;;;;;8.53;3.50;;;;;;;18.88;56.80;99041.72;4998103;28;20198;-91
2023/10/24 04:03:21;;;;;;;10.43;2.90;;;;;;;18.78;56.87;99043.50;4998156;28;20167;-92
2023/10/24 04:05:46;;;;;;;8.83;3.37;;;;;;;18.75;56.98;99046.44;4998209;28;20200;-92
2023/10/24 04:08:13;;;;;;;6.83;2.90;;;;;;;18.72;57.41;99048.50;4998029;28;20180;-91
2023/10/24 04:10:38;;;;;;;15.10;3.57;;;;;;;18.67;57.29;99056.88;4998462;28;20167;-91
2023/10/24 04:13:05;;;;;;;8.50;3.10;;;;;;;18.65;57.42;99053.50;5015474;28;20619;-90
2023/10/24 04:15:31;;;;;;;9.83;2.97;;;;;;;18.60;57.56;99053.06;4998153;28;20180;-91
2023/10/24 04:17:56;;;;;;;13.97;3.90;;;;;;;18.54;57.76;99058.91;4997917;28;20190;-91
2023/10/24 04:20:22;;;;;;;16.80;3.43;;;;;;;18.51;57.77;99053.00;4981463;28;20223;-92
2023/10/24 04:22:47;;;;;;;9.47;3.30;;;;;;;18.50;57.82;99062.78;5010564;28;20171;-91
2023/10/24 04:25:16;;;;;;;14.07;3.07;;;;;;;18.52;57.73;99054.72;5014316;28;20257;-91
2023/10/24 04:27:41;;;;;;;14.23;2.63;;;;;;;18.51;57.69;99061.81;4997661;28;20190;-91
2023/10/24 04:30:07;;;;;;;13.67;3.37;;;;;;;18.43;57.95;99056.28;4997076;28;20183;-91
2023/10/24 04:32:33;;;;;;;7.33;3.20;;;;;;;18.39;58.27;99065.50;4997468;28;20176;-90
2023/10/24 04:34:58;;;;;;;6.13;3.13;;;;;;;18.42;58.19;99060.75;5013718;28;20181;-91
2023/10/24 04:37:24;;;;;;;21.57;4.60;;;;;;;18.46;57.94;99058.69;5013997;28;20182;-92
2023/10/24 04:39:49;;;;;;;16.90;4.37;;;;;;;18.45;58.04;99070.28;5014743;28;20200;-91
2023/10/24 04:42:15;;;;;;;8.50;3.13;;;;;;;18.46;57.89;99073.78;4997345;28;20182;-91
2023/10/24 04:44:41;;;;;;;10.80;3.53;;;;;;;18.37;58.04;99078.88;5014478;28;20171;-91
2023/10/24 04:47:06;;;;;;;6.37;2.67;;;;;;;18.31;58.14;99074.13;5014476;28;20197;-91
2023/10/24 04:49:32;;;;;;;8.33;3.13;;;;;;;18.24;58.68;99080.91;5013700;28;20171;-91
2023/10/24 04:51:57;;;;;;;9.50;2.73;;;;;;;18.21;58.61;99083.81;5014817;28;20217;-91
2023/10/24 04:54:23;;;;;;;9.40;3.60;;;;;;;18.19;58.83;99084.91;5014325;28;20616;-91
2023/10/24 04:56:48;;;;;;;8.83;3.23;;;;;;;18.21;58.60;99089.13;5014861;28;20183;-91
2023/10/24 04:59:14;;;;;;;17.23;4.70;;;;;;;18.33;58.55;99095.22;5014151;28;20276;-91
2023/10/24 05:01:39;;;;;;;11.47;3.60;;;;;;;18.27;58.87;99093.91;4997144;28;20183;-91
2023/10/24 05:04:08;;;;;;;16.50;4.13;;;;;;;18.23;59.34;99095.16;5014147;28;20268;-92
2023/10/24 05:06:35;;;;;;;11.70;3.60;;;;;;;18.23;59.36;99107.56;5013365;28;20179;-91
2023/10/24 05:09:00;;;;;;;12.57;2.87;;;;;;;18.23;59.84;99112.88;4997083;28;20179;-91
2023/10/24 05:11:26;;;;;;;9.53;3.77;;;;;;;18.19;60.09;99114.94;4996576;28;20194;-91
2023/10/24 05:13:51;;;;;;;10.57;4.00;;;;;;;18.24;60.29;99104.78;4997298;28;20189;-92
2023/10/24 05:16:17;;;;;;;9.43;3.03;;;;;;;18.35;60.27;99119.81;5018043;28;20190;-91
2023/10/24 05:18:42;;;;;;;13.70;3.30;;;;;;;18.45;60.12;99125.19;5016415;28;20296;-91
2023/10/24 05:21:08;;;;;;;8.80;3.57;;;;;;;18.56;60.28;99130.44;5016305;28;20180;-92
2023/10/24 05:23:33;;;;;;;13.63;4.00;;;;;;;18.73;60.21;99132.50;5014131;28;20190;-91
2023/10/24 05:25:59;;;;;;;9.67;3.50;;;;;;;18.94;59.43;99136.81;5014164;28;20182;-91
2023/10/24 05:28:30;;;;;;;10.27;3.23;;;;;;;19.13;58.77;99144.00;4996372;28;20215;-91
2023/10/24 05:30:56;;;;;;;9.27;3.30;;;;;;;19.23;58.49;99141.41;4996831;28;20179;-92
2023/10/24 05:33:21;;;;;;;7.33;3.10;;;;;;;19.32;58.15;99141.41;4996745;28;20192;-92
2023/10/24 05:35:47;;;;;;;10.33;3.63;;;;;;;19.40;58.35;99149.59;4996240;28;20175;-93
2023/10/24 05:38:13;;;;;;;9.23;3.70;;;;;;;19.59;58.19;99154.13;4996579;28;20167;-92
2023/10/24 05:40:39;;;;;;;10.20;3.30;;;;;;;19.81;57.65;99156.53;5013681;28;20244;-91
2023/10/24 05:43:06;;;;;;;14.07;4.07;;;;;;;20.04;56.79;99157.97;4996512;28;20178;-92
2023/10/24 05:45:32;;;;;;;13.23;4.10;;;;;;;20.36;55.99;99159.53;4996436;28;20183;-93
2023/10/24 05:47:57;;;;;;;9.47;3.77;;;;;;;20.54;55.28;99165.81;4996553;28;20182;-92
2023/10/24 05:50:24;;;;;;;8.70;2.73;;;;;;;20.69;54.92;99161.72;4996660;28;20244;-92
2023/10/24 05:52:49;;;;;;;12.03;3.47;;;;;;;20.86;54.59;99165.47;4996407;28;20189;-92
2023/10/24 05:55:15;;;;;;;15.17;3.87;;;;;;;20.98;54.45;99165.13;5012921;28;20179;-92
2023/10/24 05:57:41;;;;;;;12.97;3.13;;;;;;;21.12;54.18;99158.53;4996872;28;20183;-92
2023/10/24 06:00:07;;;;;;;16.97;3.30;;;;;;;21.46;53.61;99166.78;4996609;28;20214;-93
2023/10/24 06:02:32;;;;;;;11.27;3.67;;;;;;;22.07;52.29;99157.13;4996541;28;20179;-92
2023/10/24 06:04:58;;;;;;;9.73;3.30;;;;;;;22.95;50.04;99161.53;5012695;28;20183;-93
2023/10/24 06:07:23;;;;;;;11.30;3.80;;;;;;;23.95;47.43;99159.78;4996294;28;20183;-93
2023/10/24 06:09:49;;;;;;;19.67;4.97;;;;;;;24.63;44.92;99163.06;4996430;28;20699;-91
2023/10/24 06:12:14;;;;;;;14.27;3.90;;;;;;;24.86;44.06;99168.56;4996226;28;20186;-92
2023/10/24 06:14:40;;;;;;;14.50;3.87;;;;;;;25.10;43.55;99173.88;4996253;28;20181;-92
2023/10/24 06:17:05;;;;;;;11.17;2.60;;;;;;;25.51;42.53;99171.91;4996139;28;20651;-93
2023/10/24 06:19:33;;;;;;;13.70;3.27;;;;;;;26.15;41.57;99160.81;4996748;28;20203;-92
2023/10/24 06:21:59;;;;;;;11.73;3.40;;;;;;;26.72;40.19;99169.28;4999879;28;20277;-92
2023/10/24 06:24:24;;;;;;;12.93;2.57;;;;;;;27.16;39.44;99169.38;5015966;28;20218;-93
2023/10/24 06:26:49;;;;;;;11.03;2.70;;;;;;;27.40;39.12;99185.28;5033188;28;20670;-93
2023/10/24 06:29:15;;;;;;;15.63;3.47;;;;;;;27.68;38.44;99171.09;5014210;28;20175;-93
2023/10/24 06:31:40;;;;;;;14.97;3.17;;;;;;;27.94;38.20;99179.50;4996277;28;20175;-92
2023/10/24 06:34:06;;;;;;;12.43;2.93;;;;;;;28.12;38.13;99179.94;4996056;28;20211;-92
2023/10/24 06:36:32;;;;;;;11.50;2.97;;;;;;;28.22;37.70;99175.09;4996128;28;20175;-92
2023/10/24 06:38:57;;;;;;;8.23;2.93;;;;;;;28.32;37.73;99164.81;5001368;28;20203;-93
2023/10/24 06:41:23;;;;;;;11.13;3.80;;;;;;;28.35;37.84;99169.84;4976528;28;20195;-93
2023/10/24 06:43:49;;;;;;;10.53;3.10;;;;;;;28.41;37.77;99169.03;4977111;28;20691;-92
2023/10/24 06:46:15;;;;;;;11.07;3.10;;;;;;;28.66;37.54;99166.81;5028667;28;20222;-93
2023/10/24 06:48:40;;;;;;;17.63;3.53;;;;;;;28.75;36.59;99178.31;5002363;28;20189;-93
2023/10/24 06:51:05;;;;;;;14.80;3.28;;;;;;;28.86;36.87;99172.34;4996183;28;20216;-94
2023/10/24 06:53:31;;;;;;;12.82;3.50;;;;;;;28.91;37.06;99175.28;5012212;28;20261;-93
2023/10/24 06:56:03;;;;;;;14.50;3.40;;;;;;;28.94;36.55;99169.50;5013304;28;20179;-94
2023/10/24 06:58:28;;;;;;;16.65;3.72;;;;;;;28.74;36.18;99176.63;5004138;28;20284;-94
2023/10/24 07:01:01;;;;;;;13.60;3.47;;;;;;;28.53;37.26;99166.66;5015975;28;20624;-94
2023/10/24 07:03:37;;;;;;;11.63;3.95;;;;;;;28.50;37.39;99172.44;5009943;28;20193;-94
2023/10/24 07:06:18;;;;;;;;;;;;;;;;;;;;;
2023/10/24 07:16:09;;;;;;;;;;;;;;;;;;;;;
2023/10/24 07:18:37;;;;;;;12.95;3.78;;;;;;;28.88;36.22;99173.81;4937811;29;20213;-94
2023/10/24 07:21:15;;;;;;;;;;;;;;;;;;;;;
2023/10/24 07:24:01;;;;;;;23.52;4.38;;;;;;;28.72;37.28;99170.59;4946216;29;20546;-94
2023/10/24 07:26:34;;;;;;;20.58;3.75;;;;;;;28.70;36.80;99167.22;4921699;29;20269;-93
2023/10/24 07:29:05;;;;;;;14.40;3.83;;;;;;;28.76;37.19;99161.06;4910694;29;20186;-95
2023/10/24 07:31:45;;;;;;;;;;;;;;;;;;;;;
2023/10/24 07:34:11;;;;;;;21.73;3.80;;;;;;;28.64;36.36;99158.91;4996654;28;20160;-93
2023/10/24 07:36:57;;;;;;;13.20;3.92;;;;;;;28.56;36.93;99152.78;4994249;28;20700;-94
2023/10/24 07:39:23;;;;;;;11.15;2.72;;;;;;;28.43;36.85;99155.38;4996970;28;20238;-93
2023/10/24 07:41:58;;;;;;;8.93;2.83;;;;;;;28.33;36.03;99153.00;4999021;28;20198;-93
2023/10/24 07:45:17;;;;;;;;;;;;;;;;;;;;;
2023/10/24 07:47:55;;;;;;;13.50;3.03;;;;;;;27.84;36.76;99149.34;5016381;28;20193;-94
2023/10/24 07:50:21;;;;;;;11.95;3.20;;;;;;;27.90;37.36;99148.59;4999438;28;20197;-93
2023/10/24 07:52:46;;;;;;;13.35;2.90;;;;;;;27.96;36.39;99142.44;4998309;28;20175;-94
2023/10/24 07:55:19;;;;;;;18.77;3.38;;;;;;;27.99;36.38;99145.56;4998742;28;20186;-93
2023/10/24 07:57:44;;;;;;;13.60;2.20;;;;;;;28.00;35.84;99143.72;4998266;28;20206;-94
2023/10/24 08:00:33;;;;;;;13.18;3.28;;;;;;;27.93;36.68;99142.81;4999745;28;20230;-93
2023/10/24 08:03:24;;;;;;;;;;;;;;;;;;;;;
2023/10/24 08:05:51;;;;;;;11.30;3.22;;;;;;;28.09;36.60;99129.13;5016011;28;20190;-93
2023/10/24 08:08:28;;;;;;;10.85;2.45;;;;;;;28.15;36.46;99124.81;4998178;28;20189;-94
2023/10/24 08:10:54;;;;;;;18.33;2.40;;;;;;;28.33;36.23;99134.13;5015310;28;20514;-94
2023/10/24 08:13:22;;;;;;;13.32;2.60;;;;;;;28.49;35.31;99133.84;4998339;28;20183;-93
2023/10/24 08:15:51;;;;;;;11.70;2.00;;;;;;;28.60;34.83;99125.22;4997918;28;20194;-93
2023/10/24 08:18:56;;;;;;;17.70;2.88;;;;;;;28.59;35.32;99126.25;4998999;28;20182;-94
2023/10/24 08:21:29;;;;;;;12.88;3.17;;;;;;;28.62;36.01;99128.59;4998714;28;20183;-93
2023/10/24 08:24:07;;;;;;;13.63;3.08;;;;;;;28.66;37.22;99117.41;4998066;28;20171;-94
2023/10/24 08:26:36;;;;;;;7.70;2.28;;;;;;;28.84;36.19;99121.28;5000561;28;20287;-94
2023/10/24 08:29:04;;;;;;;9.57;3.28;;;;;;;29.00;35.10;99114.75;5018009;28;20170;-95
2023/10/24 08:31:32;;;;;;;17.58;3.95;;;;;;;28.97;34.92;99113.28;5017565;28;20266;-94
2023/10/24 08:34:07;;;;;;;11.85;3.28;;;;;;;29.02;35.24;99112.66;5001264;28;20233;-95
2023/10/24 08:36:35;;;;;;;9.10;2.92;;;;;;;29.22;35.52;99108.25;4997579;28;20244;-94
2023/10/24 08:39:18;;;;;;;;;;;;;;;;;;;;;
2023/10/24 08:42:13;;;;;;;10.02;2.17;;;;;;;29.72;33.70;99097.00;5015340;28;20659;-94
2023/10/24 08:45:48;;;;;;;;;;;;;;;;;;;;;
2023/10/24 08:48:05;;;;;;;7.97;2.40;;;;;;;29.89;33.17;99100.22;4991790;28;20199;-93
2023/10/24 08:51:24;;;;;;;;;;;;;;;;;;;;;
2023/10/24 08:53:52;;;;;;;11.90;2.75;;;;;;;30.16;34.14;99090.28;4990450;28;20194;-94
2023/10/24 09:01:07;;;;;;;;;;;;;;;;;;;;;
2023/10/24 09:16:08;;;;;;;10.07;2.25;;;;;;;31.36;32.02;99067.22;4842051;29;20188;-93
2023/10/24 09:18:19;;;;;;;13.95;3.25;;;;;;;31.32;31.16;99065.13;4861718;29;20199;-94
2023/10/24 09:20:45;;;;;;;10.65;2.53;;;;;;;31.18;31.71;99058.97;4881422;29;20195;-95
2023/10/24 09:23:37;;;;;;;14.30;3.25;;;;;;;31.18;32.08;99066.25;4921822;29;20197;-94
2023/10/24 09:30:25;;;;;;;;;;;;;;;;;;;;;
2023/10/24 09:33:14;;;;;;;;;;;;;;;;;;;;;
2023/10/24 09:35:42;;;;;;;15.13;3.28;;;;;;;31.48;31.33;99056.56;4954328;28;20193;-94
2023/10/24 09:38:09;;;;;;;10.88;2.70;;;;;;;31.46;31.03;99047.81;4938559;29;20181;-94
2023/10/24 09:55:49;;;;;;;;;;;;;;;;;;;;;
2023/10/24 10:16:45;;;;;;;;;;;;;;;;;;;;;
2023/10/24 10:37:34;;;;;;;;;;;;;;;;;;;;;
2023/10/24 10:40:28;;;;;;;;;;;;;;;;;;;;;
2023/10/24 10:42:59;;;;;;;10.52;3.13;;;;;;;32.95;29.44;98949.09;4737541;30;20209;-96
2023/10/24 10:46:33;;;;;;;13.50;2.58;;;;;;;33.00;28.69;98954.66;4736592;29;20203;-93
2023/10/24 11:13:54;;;;;;;10.30;2.90;;;;;;;33.36;28.62;98919.28;4891262;29;20592;-93
2023/10/24 11:17:46;;;;;;;;;;;;;;;;;;;;;
2023/10/24 11:20:10;;;;;;;12.43;3.30;;;;;;;33.34;28.02;98913.25;4915597;29;20707;-94
2023/10/24 11:36:22;;;;;;;10.07;3.00;;;;;;;33.22;28.48;98900.69;4899450;29;20197;-94
2023/10/24 11:39:29;;;;;;;10.52;2.90;;;;;;;32.93;28.34;98896.91;4861812;29;20434;-94
2023/10/24 11:59:57;;;;;;;12.35;2.65;;;;;;;33.26;27.90;98875.53;4788527;30;20268;-93
2023/10/24 12:03:00;;;;;;;21.20;3.08;;;;;;;33.06;28.19;98868.75;4791714;29;20211;-95
2023/10/24 12:05:55;;;;;;;12.98;3.15;;;;;;;32.89;28.58;98873.97;4817060;29;20198;-95
2023/10/24 12:15:35;;;;;;;11.93;2.75;;;;;;;32.89;28.86;98856.84;4813921;29;20659;-93
2023/10/24 12:29:25;;;;;;;;;;;;;;;;;;;;;
2023/10/24 12:32:45;;;;;;;8.63;2.42;;;;;;;32.75;28.42;98839.91;4730742;30;20304;-94
2023/10/24 12:38:37;;;;;;;9.77;2.33;;;;;;;33.02;28.54;98841.19;4665028;30;20722;-93
2023/10/24 13:03:30;;;;;;;13.43;3.20;;;;;;;32.75;28.04;98818.19;4748763;30;20779;-95
2023/10/24 13:06:12;;;;;;;8.75;2.35;;;;;;;32.56;29.00;98814.69;4775223;30;20263;-94
2023/10/24 13:29:21;;;;;;;14.95;3.03;;;;;;;33.13;28.36;98804.28;4733329;30;20737;-94
2023/10/24 13:56:18;;;;;;;;;;;;;;;;;;;;;
2023/10/24 14:09:48;;;;;;;;;;;;;;;;;;;;;
2023/10/24 15:07:10;;;;;;;13.98;4.15;;;;;;;30.45;33.53;98738.25;6084565;23;20172;-94
2023/10/24 15:10:04;;;;;;;16.15;4.03;;;;;;;30.26;33.67;98741.84;6138942;23;20200;-94
2023/10/24 15:12:30;;;;;;;11.43;2.83;;;;;;;30.09;33.60;98733.38;6170316;23;20154;-93
2023/10/24 15:14:56;;;;;;;18.30;3.58;;;;;;;29.91;34.09;98740.53;6169081;23;20452;-94
2023/10/24 15:17:21;;;;;;;17.35;3.17;;;;;;;29.69;34.24;98737.25;6168948;23;20168;-93
2023/10/24 15:19:47;;;;;;;12.90;3.85;;;;;;;29.47;34.99;98739.38;6168494;23;20213;-94
2023/10/24 15:22:12;;;;;;;13.02;3.85;;;;;;;29.31;34.67;98734.41;6168422;23;20154;-92
2023/10/24 15:24:38;;;;;;;14.55;3.72;;;;;;;29.10;35.34;98740.00;6168504;23;20168;-94
2023/10/24 15:27:03;;;;;;;10.40;3.40;;;;;;;28.91;35.49;98740.81;6166933;23;20184;-93
2023/10/24 15:29:36;;;;;;;15.30;3.92;;;;;;;28.69;35.86;98737.50;6168255;23;20188;-93
2023/10/24 15:32:04;;;;;;;10.18;4.10;;;;;;;28.52;36.16;98741.56;6168570;23;20233;-93
2023/10/24 15:34:32;;;;;;;13.57;3.53;;;;;;;28.34;36.75;98741.31;6168171;23;20168;-93
2023/10/24 15:36:58;;;;;;;12.95;2.92;;;;;;;28.15;36.75;98742.09;6167646;23;20150;-93
2023/10/24 15:39:23;;;;;;;17.80;3.65;;;;;;;27.98;37.19;98738.91;6167486;23;20149;-92
2023/10/24 15:41:49;;;;;;;14.30;4.03;;;;;;;27.85;37.36;98738.84;6167869;23;20176;-93
2023/10/24 15:44:15;;;;;;;9.40;3.47;;;;;;;27.74;37.32;98740.22;6166558;23;20158;-93
2023/10/24 15:46:42;;;;;;;17.20;3.05;;;;;;;27.62;37.49;98743.69;6166821;23;20154;-92
2023/10/24 15:49:08;;;;;;;17.88;3.65;;;;;;;27.46;37.88;98742.13;6167700;23;20171;-93
2023/10/24 15:51:34;;;;;;;12.57;3.35;;;;;;;27.37;38.14;98738.72;6168296;23;20168;-94
2023/10/24 15:54:00;;;;;;;9.40;3.45;;;;;;;27.29;38.20;98746.13;6168330;23;20485;-92
2023/10/24 15:56:25;;;;;;;11.90;3.33;;;;;;;27.13;38.39;98741.84;6168278;23;20158;-93
2023/10/24 15:58:51;;;;;;;9.52;3.47;;;;;;;27.07;38.51;98750.69;6168083;23;20442;-93
2023/10/24 16:01:18;;;;;;;14.73;3.80;;;;;;;27.05;38.13;98751.91;6158603;23;20177;-93
2023/10/24 16:03:45;;;;;;;11.60;3.47;;;;;;;27.05;38.25;98750.06;6186160;23;20246;-93
2023/10/24 16:06:14;;;;;;;16.30;4.25;;;;;;;27.02;38.54;98755.03;6161397;23;20225;-93
2023/10/24 16:08:40;;;;;;;17.08;4.68;;;;;;;27.03;38.56;98765.59;6161158;23;20178;-93
2023/10/24 16:11:05;;;;;;;16.73;5.18;;;;;;;27.02;38.48;98758.53;6157703;23;20161;-92
2023/10/24 16:13:32;;;;;;;21.52;5.18;;;;;;;26.98;38.97;98757.25;6160968;23;20583;-93
2023/10/24 16:15:57;;;;;;;21.15;6.43;;;;;;;26.93;38.71;98756.19;6161302;23;20212;-93
2023/10/24 16:19:04;;;;;;;;;;;;;;;;;;;;;
2023/10/24 16:24:31;;;;;;;14.75;4.50;;;;;;;26.74;39.10;98750.41;6166746;23;20158;-93
2023/10/24 16:26:57;;;;;;;14.65;4.18;;;;;;;26.69;38.90;98749.31;6161341;23;20597;-93
2023/10/24 16:29:22;;;;;;;13.65;4.00;;;;;;;26.61;38.98;98752.13;6161208;23;20184;-92
2023/10/24 16:31:48;;;;;;;14.90;3.92;;;;;;;26.56;39.19;98750.00;6161153;23;20253;-92
2023/10/24 16:34:13;;;;;;;20.73;4.57;;;;;;;26.43;39.56;98749.03;6161203;23;20230;-92
2023/10/24 16:36:39;;;;;;;12.18;3.28;;;;;;;26.35;39.43;98751.84;6160890;23;20154;-92
2023/10/24 16:39:04;;;;;;;18.30;3.80;;;;;;;26.32;39.58;98750.34;6161471;23;20475;-91
2023/10/24 16:41:31;;;;;;;15.57;4.40;;;;;;;26.33;39.62;98756.56;6161322;23;20590;-92
2023/10/24 16:43:56;;;;;;;9.30;3.38;;;;;;;26.34;39.23;98755.53;6161000;23;20170;-92
2023/10/24 16:46:22;;;;;;;19.92;4.10;;;;;;;26.34;39.66;98747.47;6160851;23;20158;-92
2023/10/24 16:48:50;;;;;;;12.25;4.22;;;;;;;26.27;39.34;98751.94;6160902;23;20182;-92
2023/10/24 16:51:16;;;;;;;9.90;4.00;;;;;;;26.30;39.37;98751.56;6160970;23;20154;-92
2023/10/24 16:53:44;;;;;;;7.00;3.63;;;;;;;26.30;39.71;98759.63;6160974;23;20154;-93
2023/10/24 16:56:09;;;;;;;15.90;3.97;;;;;;;26.29;39.83;98755.28;6161160;23;20244;-93
2023/10/24 16:58:35;;;;;;;10.57;3.60;;;;;;;26.20;39.59;98750.00;6160746;23;20150;-92
2023/10/24 17:01:01;;;;;;;11.20;3.60;;;;;;;26.06;39.90;98758.91;6160824;23;20159;-92